sensor_id;sensor_type;location;lat;lon;timestamp;P1;durP1;ratioP1;P2;durP2;ratioP2
75504;SDS011;64085;54.974;73.410;2023-04-28T00:01:59;7.22;;;2.15;;
75504;SDS011;64085;54.974;73.410;2023-04-28T00:04:25;3.65;;;1.98;;
75504;SDS011;64085;54.974;73.410;2023-04-28T00:06:51;6.97;;;2.97;;
75504;SDS011;64085;54.974;73.410;2023-04-28T00:09:16;2.42;;;1.80;;
75504;SDS011;64085;54.974;73.410;2023-04-28T00:11:45;3.08;;;1.88;;
75504;SDS011;64085;54.974;73.410;2023-04-28T00:14:12;3.00;;;2.05;;
75504;SDS011;64085;54.974;73.410;2023-04-28T00:16:38;7.55;;;2.42;;
75504;SDS011;64085;54.974;73.410;2023-04-28T00:19:03;4.28;;;2.08;;
75504;SDS011;64085;54.974;73.410;2023-04-28T00:21:30;7.75;;;2.53;;
75504;SDS011;64085;54.974;73.410;2023-04-28T00:23:56;4.50;;;2.22;;
75504;SDS011;64085;54.974;73.410;2023-04-28T00:26:22;3.28;;;2.42;;
75504;SDS011;64085;54.974;73.410;2023-04-28T00:28:47;3.70;;;1.95;;
75504;SDS011;64085;54.974;73.410;2023-04-28T00:31:16;5.47;;;1.90;;
75504;SDS011;64085;54.974;73.410;2023-04-28T00:33:42;5.47;;;2.30;;
75504;SDS011;64085;54.974;73.410;2023-04-28T00:36:08;4.00;;;1.90;;
75504;SDS011;64085;54.974;73.410;2023-04-28T00:38:35;4.78;;;1.98;;
75504;SDS011;64085;54.974;73.410;2023-04-28T00:41:01;4.22;;;1.90;;
75504;SDS011;64085;54.974;73.410;2023-04-28T00:43:27;9.52;;;2.58;;
75504;SDS011;64085;54.974;73.410;2023-04-28T00:45:53;5.13;;;2.17;;
75504;SDS011;64085;54.974;73.410;2023-04-28T00:48:19;2.20;;;2.00;;
75504;SDS011;64085;54.974;73.410;2023-04-28T00:50:45;4.97;;;2.08;;
75504;SDS011;64085;54.974;73.410;2023-04-28T00:53:30;4.25;;;2.35;;
75504;SDS011;64085;54.974;73.410;2023-04-28T00:55:57;6.57;;;2.50;;
75504;SDS011;64085;54.974;73.410;2023-04-28T00:58:23;2.85;;;1.83;;
75504;SDS011;64085;54.974;73.410;2023-04-28T01:00:49;9.30;;;2.75;;
75504;SDS011;64085;54.974;73.410;2023-04-28T01:03:15;3.10;;;2.10;;
75504;SDS011;64085;54.974;73.410;2023-04-28T01:05:40;4.28;;;1.85;;
75504;SDS011;64085;54.974;73.410;2023-04-28T01:08:06;2.97;;;1.85;;
75504;SDS011;64085;54.974;73.410;2023-04-28T01:10:32;6.15;;;2.28;;
75504;SDS011;64085;54.974;73.410;2023-04-28T01:12:57;8.27;;;2.83;;
75504;SDS011;64085;54.974;73.410;2023-04-28T01:15:23;12.68;;;2.92;;
75504;SDS011;64085;54.974;73.410;2023-04-28T01:18:07;5.55;;;2.00;;
75504;SDS011;64085;54.974;73.410;2023-04-28T01:20:32;6.57;;;2.78;;
75504;SDS011;64085;54.974;73.410;2023-04-28T01:22:58;4.78;;;2.20;;
75504;SDS011;64085;54.974;73.410;2023-04-28T01:25:24;7.25;;;3.05;;
75504;SDS011;64085;54.974;73.410;2023-04-28T01:27:49;7.45;;;2.85;;
75504;SDS011;64085;54.974;73.410;2023-04-28T01:30:16;10.75;;;2.88;;
75504;SDS011;64085;54.974;73.410;2023-04-28T01:32:42;8.48;;;2.80;;
75504;SDS011;64085;54.974;73.410;2023-04-28T01:35:08;11.95;;;2.70;;
75504;SDS011;64085;54.974;73.410;2023-04-28T01:37:34;7.70;;;2.65;;
75504;SDS011;64085;54.974;73.410;2023-04-28T01:40:18;9.25;;;3.00;;
75504;SDS011;64085;54.974;73.410;2023-04-28T01:43:02;4.78;;;2.17;;
75504;SDS011;64085;54.974;73.410;2023-04-28T01:45:27;4.32;;;2.20;;
75504;SDS011;64085;54.974;73.410;2023-04-28T01:47:53;8.35;;;3.15;;
75504;SDS011;64085;54.974;73.410;2023-04-28T01:50:19;5.57;;;2.40;;
75504;SDS011;64085;54.974;73.410;2023-04-28T01:52:44;5.93;;;2.58;;
75504;SDS011;64085;54.974;73.410;2023-04-28T07:01:06;34.70;;;7.93;;
75504;SDS011;64085;54.974;73.410;2023-04-28T07:03:50;22.15;;;5.72;;
75504;SDS011;64085;54.974;73.410;2023-04-28T07:06:34;23.17;;;6.82;;
75504;SDS011;64085;54.974;73.410;2023-04-28T07:09:00;28.42;;;6.88;;
75504;SDS011;64085;54.974;73.410;2023-04-28T07:11:25;27.50;;;5.70;;
75504;SDS011;64085;54.974;73.410;2023-04-28T07:13:51;25.08;;;6.03;;
75504;SDS011;64085;54.974;73.410;2023-04-28T07:16:17;28.35;;;4.53;;
75504;SDS011;64085;54.974;73.410;2023-04-28T07:19:01;26.55;;;5.30;;
75504;SDS011;64085;54.974;73.410;2023-04-28T07:21:26;20.40;;;4.88;;
75504;SDS011;64085;54.974;73.410;2023-04-28T07:23:52;20.65;;;4.10;;
75504;SDS011;64085;54.974;73.410;2023-04-28T07:26:23;19.60;;;5.55;;
75504;SDS011;64085;54.974;73.410;2023-04-28T07:28:49;17.20;;;4.15;;
75504;SDS011;64085;54.974;73.410;2023-04-28T07:31:16;39.85;;;6.80;;
75504;SDS011;64085;54.974;73.410;2023-04-28T07:33:41;23.95;;;5.65;;
75504;SDS011;64085;54.974;73.410;2023-04-28T07:36:26;28.52;;;6.65;;
75504;SDS011;64085;54.974;73.410;2023-04-28T07:38:51;17.52;;;4.63;;
75504;SDS011;64085;54.974;73.410;2023-04-28T07:41:17;17.75;;;3.90;;
75504;SDS011;64085;54.974;73.410;2023-04-28T07:43:43;11.88;;;3.67;;
75504;SDS011;64085;54.974;73.410;2023-04-28T07:46:09;20.75;;;4.00;;
75504;SDS011;64085;54.974;73.410;2023-04-28T07:48:37;17.92;;;4.90;;
75504;SDS011;64085;54.974;73.410;2023-04-28T07:51:02;15.13;;;3.45;;
75504;SDS011;64085;54.974;73.410;2023-04-28T07:53:28;14.90;;;3.55;;
75504;SDS011;64085;54.974;73.410;2023-04-28T07:55:54;18.05;;;4.50;;
75504;SDS011;64085;54.974;73.410;2023-04-28T07:58:19;21.05;;;4.63;;
75504;SDS011;64085;54.974;73.410;2023-04-28T08:01:04;13.82;;;3.42;;
75504;SDS011;64085;54.974;73.410;2023-04-28T08:03:29;19.33;;;4.07;;
75504;SDS011;64085;54.974;73.410;2023-04-28T08:05:55;21.23;;;5.25;;
75504;SDS011;64085;54.974;73.410;2023-04-28T08:08:22;25.80;;;4.68;;
75504;SDS011;64085;54.974;73.410;2023-04-28T08:13:32;18.63;;;3.63;;
75504;SDS011;64085;54.974;73.410;2023-04-28T08:15:58;21.52;;;4.47;;
75504;SDS011;64085;54.974;73.410;2023-04-28T08:18:42;19.42;;;3.75;;
75504;SDS011;64085;54.974;73.410;2023-04-28T08:21:26;16.75;;;3.60;;
75504;SDS011;64085;54.974;73.410;2023-04-28T08:24:10;17.02;;;2.63;;
75504;SDS011;64085;54.974;73.410;2023-04-28T08:26:36;13.23;;;3.13;;
75504;SDS011;64085;54.974;73.410;2023-04-28T08:29:02;18.73;;;4.30;;
75504;SDS011;64085;54.974;73.410;2023-04-28T08:31:28;14.48;;;3.05;;
75504;SDS011;64085;54.974;73.410;2023-04-28T08:33:54;14.95;;;2.72;;
75504;SDS011;64085;54.974;73.410;2023-04-28T08:36:20;10.77;;;2.97;;
75504;SDS011;64085;54.974;73.410;2023-04-28T08:38:47;27.35;;;5.25;;
75504;SDS011;64085;54.974;73.410;2023-04-28T08:41:16;10.70;;;2.75;;
75504;SDS011;64085;54.974;73.410;2023-04-28T08:43:43;10.52;;;3.22;;
75504;SDS011;64085;54.974;73.410;2023-04-28T08:46:09;8.13;;;2.60;;
75504;SDS011;64085;54.974;73.410;2023-04-28T08:48:39;10.00;;;2.70;;
75504;SDS011;64085;54.974;73.410;2023-04-28T08:51:06;9.23;;;2.97;;
75504;SDS011;64085;54.974;73.410;2023-04-28T08:53:35;9.18;;;3.00;;
75504;SDS011;64085;54.974;73.410;2023-04-28T08:56:04;12.48;;;3.15;;
75504;SDS011;64085;54.974;73.410;2023-04-28T08:58:32;10.18;;;2.72;;
75504;SDS011;64085;54.974;73.410;2023-04-28T09:01:00;8.68;;;3.25;;
75504;SDS011;64085;54.974;73.410;2023-04-28T09:03:29;7.05;;;2.15;;
75504;SDS011;64085;54.974;73.410;2023-04-28T09:05:57;13.35;;;3.28;;
75504;SDS011;64085;54.974;73.410;2023-04-28T09:08:22;17.90;;;3.85;;
75504;SDS011;64085;54.974;73.410;2023-04-28T09:11:03;13.55;;;3.22;;
75504;SDS011;64085;54.974;73.410;2023-04-28T09:13:34;11.82;;;3.40;;
75504;SDS011;64085;54.974;73.410;2023-04-28T09:24:36;10.65;;;2.92;;
75504;SDS011;64085;54.974;73.410;2023-04-28T09:27:05;22.95;;;4.57;;
75504;SDS011;64085;54.974;73.410;2023-04-28T09:29:34;10.85;;;3.03;;
75504;SDS011;64085;54.974;73.410;2023-04-28T09:32:19;6.93;;;2.63;;
75504;SDS011;64085;54.974;73.410;2023-04-28T09:34:49;14.20;;;3.38;;
75504;SDS011;64085;54.974;73.410;2023-04-28T09:37:16;12.32;;;3.20;;
75504;SDS011;64085;54.974;73.410;2023-04-28T09:39:48;13.90;;;3.50;;
75504;SDS011;64085;54.974;73.410;2023-04-28T09:47:51;8.68;;;2.70;;
75504;SDS011;64085;54.974;73.410;2023-04-28T09:50:17;11.93;;;3.85;;
75504;SDS011;64085;54.974;73.410;2023-04-28T09:52:44;11.90;;;3.25;;
75504;SDS011;64085;54.974;73.410;2023-04-28T09:55:20;11.63;;;3.95;;
75504;SDS011;64085;54.974;73.410;2023-04-28T09:57:47;9.98;;;2.80;;
75504;SDS011;64085;54.974;73.410;2023-04-28T10:00:36;13.68;;;2.97;;
75504;SDS011;64085;54.974;73.410;2023-04-28T10:03:04;12.32;;;2.88;;
75504;SDS011;64085;54.974;73.410;2023-04-28T10:05:33;13.98;;;4.43;;
75504;SDS011;64085;54.974;73.410;2023-04-28T10:08:00;9.75;;;2.75;;
75504;SDS011;64085;54.974;73.410;2023-04-28T10:10:27;8.95;;;3.33;;
75504;SDS011;64085;54.974;73.410;2023-04-28T10:15:56;12.63;;;3.45;;
75504;SDS011;64085;54.974;73.410;2023-04-28T10:18:22;12.38;;;3.80;;
75504;SDS011;64085;54.974;73.410;2023-04-28T10:20:49;11.30;;;4.25;;
75504;SDS011;64085;54.974;73.410;2023-04-28T10:23:24;15.93;;;4.97;;
75504;SDS011;64085;54.974;73.410;2023-04-28T10:26:13;11.15;;;4.03;;
75504;SDS011;64085;54.974;73.410;2023-04-28T10:28:49;9.95;;;5.10;;
75504;SDS011;64085;54.974;73.410;2023-04-28T10:31:34;17.90;;;5.75;;
75504;SDS011;64085;54.974;73.410;2023-04-28T10:34:20;10.00;;;4.82;;
75504;SDS011;64085;54.974;73.410;2023-04-28T10:37:05;13.05;;;5.82;;
75504;SDS011;64085;54.974;73.410;2023-04-28T10:39:30;17.55;;;4.88;;
75504;SDS011;64085;54.974;73.410;2023-04-28T10:41:56;11.85;;;5.13;;
75504;SDS011;64085;54.974;73.410;2023-04-28T10:50:12;12.45;;;5.25;;
75504;SDS011;64085;54.974;73.410;2023-04-28T10:52:52;13.07;;;5.22;;
75504;SDS011;64085;54.974;73.410;2023-04-28T11:00:44;8.18;;;5.15;;
75504;SDS011;64085;54.974;73.410;2023-04-28T11:06:33;15.73;;;5.50;;
75504;SDS011;64085;54.974;73.410;2023-04-28T11:11:31;13.40;;;5.20;;
75504;SDS011;64085;54.974;73.410;2023-04-28T11:17:06;10.90;;;4.18;;
75504;SDS011;64085;54.974;73.410;2023-04-28T11:19:34;17.02;;;4.32;;
75504;SDS011;64085;54.974;73.410;2023-04-28T11:22:22;13.27;;;4.13;;
75504;SDS011;64085;54.974;73.410;2023-04-28T11:25:05;10.68;;;4.45;;
75504;SDS011;64085;54.974;73.410;2023-04-28T11:27:32;14.10;;;4.22;;
75504;SDS011;64085;54.974;73.410;2023-04-28T11:29:58;10.70;;;4.93;;
75504;SDS011;64085;54.974;73.410;2023-04-28T11:32:29;10.73;;;3.55;;
75504;SDS011;64085;54.974;73.410;2023-04-28T11:34:56;6.90;;;3.40;;
75504;SDS011;64085;54.974;73.410;2023-04-28T11:37:22;15.48;;;4.03;;
75504;SDS011;64085;54.974;73.410;2023-04-28T11:39:48;7.07;;;3.47;;
75504;SDS011;64085;54.974;73.410;2023-04-28T11:42:14;7.57;;;3.50;;
75504;SDS011;64085;54.974;73.410;2023-04-28T11:47:28;8.48;;;3.38;;
75504;SDS011;64085;54.974;73.410;2023-04-28T11:50:13;9.30;;;3.38;;
75504;SDS011;64085;54.974;73.410;2023-04-28T11:56:04;8.57;;;3.53;;
75504;SDS011;64085;54.974;73.410;2023-04-28T11:58:32;8.00;;;3.67;;
75504;SDS011;64085;54.974;73.410;2023-04-28T12:01:07;8.05;;;3.30;;
75504;SDS011;64085;54.974;73.410;2023-04-28T12:03:46;8.40;;;3.72;;
75504;SDS011;64085;54.974;73.410;2023-04-28T12:06:16;6.70;;;3.08;;
75504;SDS011;64085;54.974;73.410;2023-04-28T12:08:45;5.82;;;2.88;;
75504;SDS011;64085;54.974;73.410;2023-04-28T12:11:30;7.63;;;2.55;;
75504;SDS011;64085;54.974;73.410;2023-04-28T12:14:02;6.07;;;2.72;;
75504;SDS011;64085;54.974;73.410;2023-04-28T12:16:41;6.50;;;2.97;;
75504;SDS011;64085;54.974;73.410;2023-04-28T12:19:09;9.48;;;3.53;;
75504;SDS011;64085;54.974;73.410;2023-04-28T12:22:05;5.45;;;2.80;;
75504;SDS011;64085;54.974;73.410;2023-04-28T12:24:32;6.95;;;2.80;;
75504;SDS011;64085;54.974;73.410;2023-04-28T12:29:58;8.60;;;2.85;;
75504;SDS011;64085;54.974;73.410;2023-04-28T12:32:40;6.80;;;2.97;;
75504;SDS011;64085;54.974;73.410;2023-04-28T12:35:09;6.78;;;2.75;;
75504;SDS011;64085;54.974;73.410;2023-04-28T12:37:35;3.53;;;2.65;;
75504;SDS011;64085;54.974;73.410;2023-04-28T12:40:03;6.13;;;2.30;;
75504;SDS011;64085;54.974;73.410;2023-04-28T12:42:29;5.00;;;3.25;;
75504;SDS011;64085;54.974;73.410;2023-04-28T12:45:14;9.73;;;3.65;;
75504;SDS011;64085;54.974;73.410;2023-04-28T12:47:40;48.42;;;39.50;;
75504;SDS011;64085;54.974;73.410;2023-04-28T12:50:06;146.00;;;100.30;;
75504;SDS011;64085;54.974;73.410;2023-04-28T12:52:33;143.95;;;110.88;;
75504;SDS011;64085;54.974;73.410;2023-04-28T12:55:00;142.30;;;112.43;;
75504;SDS011;64085;54.974;73.410;2023-04-28T12:57:26;120.55;;;105.68;;
75504;SDS011;64085;54.974;73.410;2023-04-28T12:59:53;116.72;;;104.38;;
75504;SDS011;64085;54.974;73.410;2023-04-28T13:02:20;119.65;;;105.10;;
75504;SDS011;64085;54.974;73.410;2023-04-28T13:04:45;106.57;;;95.10;;
75504;SDS011;64085;54.974;73.410;2023-04-28T13:07:12;99.47;;;88.70;;
75504;SDS011;64085;54.974;73.410;2023-04-28T13:09:38;102.38;;;85.22;;
75504;SDS011;64085;54.974;73.410;2023-04-28T13:15:07;114.45;;;99.55;;
75504;SDS011;64085;54.974;73.410;2023-04-28T13:17:33;127.35;;;107.32;;
75504;SDS011;64085;54.974;73.410;2023-04-28T13:19:59;124.22;;;105.55;;
75504;SDS011;64085;54.974;73.410;2023-04-28T13:22:25;133.25;;;115.68;;
75504;SDS011;64085;54.974;73.410;2023-04-28T13:24:51;120.50;;;103.90;;
75504;SDS011;64085;54.974;73.410;2023-04-28T13:27:17;120.85;;;106.55;;
75504;SDS011;64085;54.974;73.410;2023-04-28T13:30:01;124.20;;;109.32;;
75504;SDS011;64085;54.974;73.410;2023-04-28T13:32:27;120.80;;;105.65;;
75504;SDS011;64085;54.974;73.410;2023-04-28T13:34:53;107.72;;;92.32;;
75504;SDS011;64085;54.974;73.410;2023-04-28T13:40:09;100.93;;;89.63;;
75504;SDS011;64085;54.974;73.410;2023-04-28T13:42:36;101.85;;;81.28;;
75504;SDS011;64085;54.974;73.410;2023-04-28T13:45:02;93.18;;;83.28;;
75504;SDS011;64085;54.974;73.410;2023-04-28T13:47:28;94.72;;;84.43;;
75504;SDS011;64085;54.974;73.410;2023-04-28T13:49:57;83.80;;;70.18;;
75504;SDS011;64085;54.974;73.410;2023-04-28T13:52:24;89.10;;;69.43;;
75504;SDS011;64085;54.974;73.410;2023-04-28T13:54:50;72.75;;;60.72;;
75504;SDS011;64085;54.974;73.410;2023-04-28T13:57:16;68.68;;;58.10;;
75504;SDS011;64085;54.974;73.410;2023-04-28T13:59:42;69.00;;;53.03;;
75504;SDS011;64085;54.974;73.410;2023-04-28T14:02:08;66.53;;;54.88;;
75504;SDS011;64085;54.974;73.410;2023-04-28T14:04:35;60.30;;;52.47;;
75504;SDS011;64085;54.974;73.410;2023-04-28T14:07:01;53.58;;;43.15;;
75504;SDS011;64085;54.974;73.410;2023-04-28T14:09:27;51.63;;;46.03;;
75504;SDS011;64085;54.974;73.410;2023-04-28T14:11:53;52.78;;;44.33;;
75504;SDS011;64085;54.974;73.410;2023-04-28T14:14:22;48.80;;;40.95;;
75504;SDS011;64085;54.974;73.410;2023-04-28T14:16:48;46.28;;;41.22;;
75504;SDS011;64085;54.974;73.410;2023-04-28T14:19:13;55.28;;;40.63;;
75504;SDS011;64085;54.974;73.410;2023-04-28T14:21:42;58.45;;;47.15;;
75504;SDS011;64085;54.974;73.410;2023-04-28T14:24:08;73.38;;;56.85;;
75504;SDS011;64085;54.974;73.410;2023-04-28T14:29:54;161.88;;;143.80;;
75504;SDS011;64085;54.974;73.410;2023-04-28T14:32:20;225.43;;;193.02;;
75504;SDS011;64085;54.974;73.410;2023-04-28T14:34:46;273.85;;;243.68;;
75504;SDS011;64085;54.974;73.410;2023-04-28T14:37:13;300.77;;;269.33;;
75504;SDS011;64085;54.974;73.410;2023-04-28T14:39:40;283.90;;;251.07;;
75504;SDS011;64085;54.974;73.410;2023-04-28T14:42:06;268.42;;;239.35;;
75504;SDS011;64085;54.974;73.410;2023-04-28T14:44:33;255.82;;;227.68;;
75504;SDS011;64085;54.974;73.410;2023-04-28T14:46:59;272.67;;;243.10;;
75504;SDS011;64085;54.974;73.410;2023-04-28T14:49:25;282.23;;;252.25;;
75504;SDS011;64085;54.974;73.410;2023-04-28T14:55:12;180.85;;;148.13;;
75504;SDS011;64085;54.974;73.410;2023-04-28T14:57:38;184.25;;;152.68;;
75504;SDS011;64085;54.974;73.410;2023-04-28T15:00:22;158.75;;;133.07;;
75504;SDS011;64085;54.974;73.410;2023-04-28T15:02:48;181.77;;;158.20;;
75504;SDS011;64085;54.974;73.410;2023-04-28T15:05:32;158.38;;;131.68;;
75504;SDS011;64085;54.974;73.410;2023-04-28T15:07:58;159.40;;;133.40;;
75504;SDS011;64085;54.974;73.410;2023-04-28T15:13:08;130.95;;;110.35;;
75504;SDS011;64085;54.974;73.410;2023-04-28T15:15:33;154.43;;;127.38;;
75504;SDS011;64085;54.974;73.410;2023-04-28T15:17:59;128.77;;;112.05;;
75504;SDS011;64085;54.974;73.410;2023-04-28T15:20:29;148.30;;;125.43;;
75504;SDS011;64085;54.974;73.410;2023-04-28T15:25:59;135.82;;;121.05;;
75504;SDS011;64085;54.974;73.410;2023-04-28T15:28:25;136.25;;;116.28;;
75504;SDS011;64085;54.974;73.410;2023-04-28T15:30:52;140.75;;;123.63;;
75504;SDS011;64085;54.974;73.410;2023-04-28T15:36:02;169.10;;;150.45;;
75504;SDS011;64085;54.974;73.410;2023-04-28T15:38:29;160.63;;;134.30;;
75504;SDS011;64085;54.974;73.410;2023-04-28T15:40:56;192.00;;;162.45;;
75504;SDS011;64085;54.974;73.410;2023-04-28T15:43:22;206.00;;;180.77;;
75504;SDS011;64085;54.974;73.410;2023-04-28T15:45:49;198.40;;;172.82;;
75504;SDS011;64085;54.974;73.410;2023-04-28T15:50:59;203.68;;;168.68;;
75504;SDS011;64085;54.974;73.410;2023-04-28T15:53:25;219.07;;;195.25;;
75504;SDS011;64085;54.974;73.410;2023-04-28T15:56:10;221.45;;;193.10;;
75504;SDS011;64085;54.974;73.410;2023-04-28T15:58:35;235.25;;;209.10;;
75504;SDS011;64085;54.974;73.410;2023-04-28T16:04:04;236.27;;;200.32;;
75504;SDS011;64085;54.974;73.410;2023-04-28T16:06:30;232.65;;;193.55;;
75504;SDS011;64085;54.974;73.410;2023-04-28T16:08:56;228.68;;;200.95;;
75504;SDS011;64085;54.974;73.410;2023-04-28T16:11:40;215.55;;;174.55;;
75504;SDS011;64085;54.974;73.410;2023-04-28T16:14:06;225.30;;;194.38;;
75504;SDS011;64085;54.974;73.410;2023-04-28T16:16:32;222.95;;;199.15;;
75504;SDS011;64085;54.974;73.410;2023-04-28T16:18:58;206.48;;;174.82;;
75504;SDS011;64085;54.974;73.410;2023-04-28T16:21:23;200.73;;;174.65;;
75504;SDS011;64085;54.974;73.410;2023-04-28T16:24:07;189.20;;;169.15;;
75504;SDS011;64085;54.974;73.410;2023-04-28T16:29:38;171.30;;;140.60;;
75504;SDS011;64085;54.974;73.410;2023-04-28T16:32:22;181.00;;;156.02;;
75504;SDS011;64085;54.974;73.410;2023-04-28T16:34:47;176.90;;;147.20;;
75504;SDS011;64085;54.974;73.410;2023-04-28T16:37:31;162.35;;;129.98;;
75504;SDS011;64085;54.974;73.410;2023-04-28T16:39:57;180.80;;;155.13;;
75504;SDS011;64085;54.974;73.410;2023-04-28T16:42:23;193.10;;;154.27;;
75504;SDS011;64085;54.974;73.410;2023-04-28T16:45:08;193.98;;;158.15;;
75504;SDS011;64085;54.974;73.410;2023-04-28T16:50:19;174.68;;;144.77;;
75504;SDS011;64085;54.974;73.410;2023-04-28T16:53:04;197.38;;;157.90;;
75504;SDS011;64085;54.974;73.410;2023-04-28T16:55:49;192.82;;;157.32;;
75504;SDS011;64085;54.974;73.410;2023-04-28T16:58:14;219.43;;;191.60;;
75504;SDS011;64085;54.974;73.410;2023-04-28T17:00:58;188.13;;;150.45;;
75504;SDS011;64085;54.974;73.410;2023-04-28T17:03:24;197.90;;;146.85;;
75504;SDS011;64085;54.974;73.410;2023-04-28T17:05:50;187.57;;;162.65;;
75504;SDS011;64085;54.974;73.410;2023-04-28T17:08:15;153.82;;;120.40;;
75504;SDS011;64085;54.974;73.410;2023-04-28T17:10:41;152.48;;;126.05;;
75504;SDS011;64085;54.974;73.410;2023-04-28T17:13:06;128.57;;;104.75;;
75504;SDS011;64085;54.974;73.410;2023-04-28T17:15:32;105.45;;;73.88;;
75504;SDS011;64085;54.974;73.410;2023-04-28T17:17:58;81.82;;;66.32;;
75504;SDS011;64085;54.974;73.410;2023-04-28T17:20:23;103.88;;;77.38;;
75504;SDS011;64085;54.974;73.410;2023-04-28T17:22:49;86.32;;;64.18;;
75504;SDS011;64085;54.974;73.410;2023-04-28T17:28:02;79.13;;;58.65;;
75504;SDS011;64085;54.974;73.410;2023-04-28T17:30:49;76.78;;;62.92;;
75504;SDS011;64085;54.974;73.410;2023-04-28T17:33:17;73.30;;;56.95;;
75504;SDS011;64085;54.974;73.410;2023-04-28T17:36:01;65.40;;;54.10;;
75504;SDS011;64085;54.974;73.410;2023-04-28T17:38:27;75.00;;;57.03;;
75504;SDS011;64085;54.974;73.410;2023-04-28T17:43:56;56.17;;;40.80;;
75504;SDS011;64085;54.974;73.410;2023-04-28T17:46:21;60.67;;;47.65;;
75504;SDS011;64085;54.974;73.410;2023-04-28T17:48:47;64.18;;;46.33;;
75504;SDS011;64085;54.974;73.410;2023-04-28T17:56:42;44.95;;;36.33;;
75504;SDS011;64085;54.974;73.410;2023-04-28T17:59:08;53.17;;;41.85;;
75504;SDS011;64085;54.974;73.410;2023-04-28T18:01:34;40.33;;;29.50;;
75504;SDS011;64085;54.974;73.410;2023-04-28T18:04:00;45.20;;;33.78;;
75504;SDS011;64085;54.974;73.410;2023-04-28T18:06:25;41.42;;;31.67;;
75504;SDS011;64085;54.974;73.410;2023-04-28T18:09:10;39.88;;;29.05;;
75504;SDS011;64085;54.974;73.410;2023-04-28T18:11:35;39.67;;;30.27;;
75504;SDS011;64085;54.974;73.410;2023-04-28T18:14:19;41.75;;;33.67;;
75504;SDS011;64085;54.974;73.410;2023-04-28T18:17:03;36.88;;;28.45;;
75504;SDS011;64085;54.974;73.410;2023-04-28T18:19:29;34.92;;;28.25;;
75504;SDS011;64085;54.974;73.410;2023-04-28T18:21:54;32.40;;;24.02;;
75504;SDS011;64085;54.974;73.410;2023-04-28T18:24:21;27.52;;;20.33;;
75504;SDS011;64085;54.974;73.410;2023-04-28T18:26:47;31.45;;;25.10;;
75504;SDS011;64085;54.974;73.410;2023-04-28T18:31:57;28.85;;;20.85;;
75504;SDS011;64085;54.974;73.410;2023-04-28T18:37:08;29.67;;;19.42;;
75504;SDS011;64085;54.974;73.410;2023-04-28T18:39:34;21.83;;;16.27;;
75504;SDS011;64085;54.974;73.410;2023-04-28T18:42:00;27.40;;;21.00;;
75504;SDS011;64085;54.974;73.410;2023-04-28T18:44:28;29.25;;;19.95;;
75504;SDS011;64085;54.974;73.410;2023-04-28T18:46:54;26.73;;;21.15;;
75504;SDS011;64085;54.974;73.410;2023-04-28T18:49:20;32.45;;;24.48;;
75504;SDS011;64085;54.974;73.410;2023-04-28T18:52:04;30.30;;;20.73;;
75504;SDS011;64085;54.974;73.410;2023-04-28T18:54:29;28.23;;;21.35;;
75504;SDS011;64085;54.974;73.410;2023-04-28T18:56:55;35.58;;;21.33;;
75504;SDS011;64085;54.974;73.410;2023-04-28T18:59:21;31.25;;;21.10;;
75504;SDS011;64085;54.974;73.410;2023-04-28T19:01:47;28.70;;;23.17;;
75504;SDS011;64085;54.974;73.410;2023-04-28T19:04:13;32.08;;;21.98;;
75504;SDS011;64085;54.974;73.410;2023-04-28T19:06:38;29.35;;;21.83;;
75504;SDS011;64085;54.974;73.410;2023-04-28T19:12:07;21.10;;;14.00;;
75504;SDS011;64085;54.974;73.410;2023-04-28T19:14:51;30.48;;;20.23;;
75504;SDS011;64085;54.974;73.410;2023-04-28T19:17:17;26.75;;;18.60;;
75504;SDS011;64085;54.974;73.410;2023-04-28T19:19:43;20.13;;;15.00;;
75504;SDS011;64085;54.974;73.410;2023-04-28T19:22:27;28.70;;;19.77;;
75504;SDS011;64085;54.974;73.410;2023-04-28T19:25:01;16.50;;;14.02;;
75504;SDS011;64085;54.974;73.410;2023-04-28T19:27:29;27.05;;;20.08;;
75504;SDS011;64085;54.974;73.410;2023-04-28T19:29:56;26.15;;;18.48;;
75504;SDS011;64085;54.974;73.410;2023-04-28T19:32:22;23.15;;;18.77;;
75504;SDS011;64085;54.974;73.410;2023-04-28T19:34:48;16.17;;;14.02;;
75504;SDS011;64085;54.974;73.410;2023-04-28T19:37:14;25.77;;;18.85;;
75504;SDS011;64085;54.974;73.410;2023-04-28T19:39:40;21.02;;;16.55;;
75504;SDS011;64085;54.974;73.410;2023-04-28T19:47:53;22.48;;;14.32;;
75504;SDS011;64085;54.974;73.410;2023-04-28T19:50:19;22.25;;;16.08;;
75504;SDS011;64085;54.974;73.410;2023-04-28T19:52:45;25.35;;;19.38;;
75504;SDS011;64085;54.974;73.410;2023-04-28T19:55:11;24.55;;;16.90;;
75504;SDS011;64085;54.974;73.410;2023-04-28T19:57:37;21.77;;;15.60;;
75504;SDS011;64085;54.974;73.410;2023-04-28T20:00:03;23.23;;;19.10;;
75504;SDS011;64085;54.974;73.410;2023-04-28T20:02:29;24.90;;;16.52;;
75504;SDS011;64085;54.974;73.410;2023-04-28T20:04:54;24.38;;;17.33;;
75504;SDS011;64085;54.974;73.410;2023-04-28T20:07:20;22.70;;;16.65;;
75504;SDS011;64085;54.974;73.410;2023-04-28T20:09:46;22.45;;;14.25;;
75504;SDS011;64085;54.974;73.410;2023-04-28T20:12:12;23.90;;;15.98;;
75504;SDS011;64085;54.974;73.410;2023-04-28T20:14:39;25.17;;;17.27;;
75504;SDS011;64085;54.974;73.410;2023-04-28T20:17:05;17.80;;;13.30;;
75504;SDS011;64085;54.974;73.410;2023-04-28T20:19:33;15.50;;;12.13;;
75504;SDS011;64085;54.974;73.410;2023-04-28T20:22:03;30.88;;;19.20;;
75504;SDS011;64085;54.974;73.410;2023-04-28T20:26:55;24.25;;;16.63;;
75504;SDS011;64085;54.974;73.410;2023-04-28T20:29:39;21.13;;;14.90;;
75504;SDS011;64085;54.974;73.410;2023-04-28T20:32:05;22.48;;;12.07;;
75504;SDS011;64085;54.974;73.410;2023-04-28T20:34:31;12.43;;;10.38;;
75504;SDS011;64085;54.974;73.410;2023-04-28T20:37:16;14.35;;;9.82;;
75504;SDS011;64085;54.974;73.410;2023-04-28T20:39:42;21.25;;;13.20;;
75504;SDS011;64085;54.974;73.410;2023-04-28T20:42:07;17.48;;;12.10;;
75504;SDS011;64085;54.974;73.410;2023-04-28T20:44:34;13.00;;;9.57;;
75504;SDS011;64085;54.974;73.410;2023-04-28T20:47:18;18.70;;;13.07;;
75504;SDS011;64085;54.974;73.410;2023-04-28T20:49:43;16.15;;;12.50;;
75504;SDS011;64085;54.974;73.410;2023-04-28T20:52:09;14.48;;;8.30;;
75504;SDS011;64085;54.974;73.410;2023-04-28T20:54:34;16.25;;;11.73;;
75504;SDS011;64085;54.974;73.410;2023-04-28T20:57:01;14.63;;;8.70;;
75504;SDS011;64085;54.974;73.410;2023-04-28T20:59:28;14.10;;;8.15;;
75504;SDS011;64085;54.974;73.410;2023-04-28T21:04:41;12.82;;;7.30;;
75504;SDS011;64085;54.974;73.410;2023-04-28T21:07:06;15.23;;;11.13;;
75504;SDS011;64085;54.974;73.410;2023-04-28T21:09:32;11.85;;;8.23;;
75504;SDS011;64085;54.974;73.410;2023-04-28T21:12:16;14.05;;;8.30;;
75504;SDS011;64085;54.974;73.410;2023-04-28T21:14:42;12.57;;;8.23;;
75504;SDS011;64085;54.974;73.410;2023-04-28T21:17:07;16.92;;;9.15;;
75504;SDS011;64085;54.974;73.410;2023-04-28T21:19:52;14.00;;;9.50;;
75504;SDS011;64085;54.974;73.410;2023-04-28T21:22:19;12.40;;;8.60;;
75504;SDS011;64085;54.974;73.410;2023-04-28T21:24:45;13.68;;;8.60;;